createdAt,value
2017-10-29T00:08:05.000Z,71.399
2017-10-29T00:18:05.000Z,71.296
2017-10-29T00:28:05.000Z,71.391
2017-10-29T00:38:05.000Z,71.407
2017-10-29T00:48:05.000Z,71.224
2017-10-29T00:58:05.000Z,71.243
2017-10-29T01:08:06.000Z,71.295
2017-10-29T01:18:06.000Z,71.317
2017-10-29T01:28:08.000Z,71.45
2017-10-29T01:38:07.000Z,71.468
2017-10-29T01:48:06.000Z,71.442
2017-10-29T01:58:06.000Z,71.407
2017-10-29T02:08:06.000Z,71.383
2017-10-29T02:18:06.000Z,71.295
2017-10-29T02:28:06.000Z,71.208
2017-10-29T02:38:06.000Z,71.216
2017-10-29T02:48:06.000Z,71.149
2017-10-29T02:58:06.000Z,71.049
2017-10-29T03:08:06.000Z,71.101
2017-10-29T03:18:06.000Z,71.133
2017-10-29T03:28:06.000Z,71.076
2017-10-29T03:38:06.000Z,70.996
2017-10-29T03:48:06.000Z,71.005
2017-10-29T03:58:06.000Z,71.075
2017-10-29T04:08:06.000Z,71.008
2017-10-29T04:18:06.000Z,71.047
2017-10-29T04:28:06.000Z,71.002
2017-10-29T04:38:06.000Z,70.945
2017-10-29T04:48:06.000Z,70.912
2017-10-29T04:58:06.000Z,70.814
2017-10-29T05:08:06.000Z,70.735
2017-10-29T05:18:06.000Z,70.785
2017-10-29T05:28:06.000Z,70.825
2017-10-29T05:38:06.000Z,70.769
2017-10-29T05:48:06.000Z,70.693
2017-10-29T05:58:06.000Z,70.668
2017-10-29T06:08:06.000Z,70.668
2017-10-29T06:18:06.000Z,70.687
2017-10-29T06:28:06.000Z,70.697
2017-10-29T06:38:06.000Z,70.641
2017-10-29T06:48:06.000Z,70.564
2017-10-29T06:58:06.000Z,70.564
2017-10-29T07:08:06.000Z,70.384
2017-10-29T07:18:06.000Z,69.95
2017-10-29T07:28:06.000Z,69.798
2017-10-29T07:38:06.000Z,69.706
2017-10-29T07:48:06.000Z,69.769
2017-10-29T07:58:06.000Z,69.654
2017-10-29T08:08:06.000Z,69.477
2017-10-29T08:18:06.000Z,69.426
2017-10-29T08:28:06.000Z,69.239
2017-10-29T08:38:06.000Z,68.896
2017-10-29T08:48:06.000Z,68.379
2017-10-29T08:58:06.000Z,67.389
2017-10-29T09:08:06.000Z,66.539
2017-10-29T09:18:06.000Z,66.466
2017-10-29T09:28:06.000Z,66.286
2017-10-29T09:38:06.000Z,66.533
2017-10-29T09:48:07.000Z,65.246
2017-10-29T09:58:07.000Z,64.462
2017-10-29T10:08:07.000Z,63.418
2017-10-29T10:18:07.000Z,64.962
2017-10-29T10:28:07.000Z,64.621
2017-10-29T10:38:07.000Z,63.707
2017-10-29T10:48:07.000Z,61.512
2017-10-29T10:58:09.000Z,61.132
2017-10-29T11:08:07.000Z,61.735
2017-10-29T11:18:07.000Z,62.49
2017-10-29T11:28:07.000Z,63.372
2017-10-29T11:38:07.000Z,63.375
2017-10-29T11:48:07.000Z,63.984
2017-10-29T11:58:07.000Z,63.974
2017-10-29T12:08:07.000Z,64.014
2017-10-29T12:18:07.000Z,64.222
2017-10-29T12:28:07.000Z,64.972
2017-10-29T12:38:08.000Z,65.448
2017-10-29T12:48:07.000Z,65.829
2017-10-29T12:58:07.000Z,66.158
2017-10-29T13:08:07.000Z,66.284
2017-10-29T13:18:07.000Z,66.35
2017-10-29T13:28:07.000Z,66.281
2017-10-29T13:38:07.000Z,66.233
2017-10-29T13:48:07.000Z,66.342
2017-10-29T13:58:07.000Z,66.234
2017-10-29T14:08:07.000Z,66.283
2017-10-29T14:18:07.000Z,66.416
2017-10-29T14:28:07.000Z,66.369
2017-10-29T14:38:07.000Z,66.602
2017-10-29T14:48:07.000Z,66.932
2017-10-29T14:58:07.000Z,67.114
2017-10-29T15:08:07.000Z,67.348
2017-10-29T15:18:08.000Z,67.477
2017-10-29T15:28:07.000Z,67.773
2017-10-29T15:38:07.000Z,68.038
2017-10-29T15:48:07.000Z,68.669
2017-10-29T15:58:07.000Z,68.859
2017-10-29T16:08:07.000Z,68.985
2017-10-29T16:18:07.000Z,69.208
2017-10-29T16:28:09.000Z,69.213
2017-10-29T16:38:07.000Z,69.449
2017-10-29T16:48:07.000Z,69.694
2017-10-29T16:58:07.000Z,69.832
2017-10-29T17:08:07.000Z,70.299
2017-10-29T17:18:07.000Z,70.655
2017-10-29T17:28:07.000Z,70.872
2017-10-29T17:38:07.000Z,70.897
2017-10-29T17:48:07.000Z,70.853
2017-10-29T17:58:07.000Z,70.833
2017-10-29T18:08:07.000Z,71.067
2017-10-29T18:18:08.000Z,71.171
2017-10-29T18:28:09.000Z,71.148
2017-10-29T18:38:08.000Z,71.047
2017-10-29T18:48:08.000Z,70.962
2017-10-29T18:58:08.000Z,71.122
2017-10-29T19:08:08.000Z,71.077
2017-10-29T19:18:08.000Z,71.066
2017-10-29T19:28:08.000Z,71.154
2017-10-29T19:38:08.000Z,70.934
2017-10-29T19:48:08.000Z,71.065
2017-10-29T19:58:08.000Z,70.989
2017-10-29T20:08:08.000Z,70.631
2017-10-29T20:18:08.000Z,70.968
2017-10-29T20:28:08.000Z,70.717
2017-10-29T20:38:08.000Z,70.666
2017-10-29T20:48:11.000Z,70.555
2017-10-29T20:58:08.000Z,70.436
2017-10-29T21:08:08.000Z,70.122
2017-10-29T21:18:08.000Z,70.273
2017-10-29T21:28:08.000Z,70.168
2017-10-29T21:38:08.000Z,70.284
2017-10-29T21:48:09.000Z,70.083
2017-10-29T21:58:12.000Z,69.94
2017-10-29T22:08:09.000Z,69.869
2017-10-29T22:18:08.000Z,69.812
2017-10-29T22:28:08.000Z,69.796
2017-10-29T22:38:08.000Z,69.845
2017-10-29T22:48:08.000Z,69.819
2017-10-29T22:58:08.000Z,69.781
2017-10-29T23:08:08.000Z,69.736
2017-10-29T23:18:08.000Z,69.719
2017-10-29T23:28:08.000Z,69.663
2017-10-29T23:38:08.000Z,69.617
2017-10-29T23:48:11.000Z,69.558
2017-10-29T23:58:10.000Z,69.598
